sensor_id;sensor_type;location;lat;lon;timestamp;pressure;altitude;pressure_sealevel;temperature;humidity
65832;BME280;52593;42.648;23.332;2023-06-05T00:00:51;95029.75;;;12.83;100.00
65832;BME280;52593;42.648;23.332;2023-06-05T00:03:17;95026.75;;;12.78;100.00
65832;BME280;52593;42.648;23.332;2023-06-05T00:05:43;95028.16;;;12.74;100.00
65832;BME280;52593;42.648;23.332;2023-06-05T00:08:08;95021.31;;;12.72;100.00
65832;BME280;52593;42.648;23.332;2023-06-05T00:10:33;95025.19;;;12.69;100.00
65832;BME280;52593;42.648;23.332;2023-06-05T00:12:59;95023.91;;;12.65;100.00
65832;BME280;52593;42.648;23.332;2023-06-05T00:15:25;95019.56;;;12.64;100.00
65832;BME280;52593;42.648;23.332;2023-06-05T00:17:50;95032.03;;;12.57;100.00
65832;BME280;52593;42.648;23.332;2023-06-05T00:20:15;95025.03;;;12.56;100.00
65832;BME280;52593;42.648;23.332;2023-06-05T00:22:41;95029.72;;;12.54;100.00
65832;BME280;52593;42.648;23.332;2023-06-05T00:25:10;95030.44;;;12.47;100.00
65832;BME280;52593;42.648;23.332;2023-06-05T00:27:35;95030.00;;;12.44;100.00
65832;BME280;52593;42.648;23.332;2023-06-05T00:30:01;95027.31;;;12.44;100.00
65832;BME280;52593;42.648;23.332;2023-06-05T00:32:26;95035.53;;;12.42;100.00
65832;BME280;52593;42.648;23.332;2023-06-05T00:34:51;95032.50;;;12.45;100.00
65832;BME280;52593;42.648;23.332;2023-06-05T00:37:20;95024.63;;;12.44;100.00
65832;BME280;52593;42.648;23.332;2023-06-05T00:39:45;95027.78;;;12.47;100.00
65832;BME280;52593;42.648;23.332;2023-06-05T00:42:10;95029.44;;;12.48;100.00
65832;BME280;52593;42.648;23.332;2023-06-05T00:44:36;95026.75;;;12.48;100.00
65832;BME280;52593;42.648;23.332;2023-06-05T00:47:03;95014.16;;;12.49;100.00
65832;BME280;52593;42.648;23.332;2023-06-05T00:49:30;95015.84;;;12.50;100.00
65832;BME280;52593;42.648;23.332;2023-06-05T00:51:56;95010.75;;;12.55;100.00
65832;BME280;52593;42.648;23.332;2023-06-05T00:54:22;95007.25;;;12.55;100.00
65832;BME280;52593;42.648;23.332;2023-06-05T00:56:47;95009.09;;;12.54;100.00
65832;BME280;52593;42.648;23.332;2023-06-05T00:59:13;95011.22;;;12.59;100.00
65832;BME280;52593;42.648;23.332;2023-06-05T01:01:39;95004.56;;;12.55;100.00
65832;BME280;52593;42.648;23.332;2023-06-05T01:04:05;95004.56;;;12.55;100.00
65832;BME280;52593;42.648;23.332;2023-06-05T01:06:32;94998.34;;;12.54;100.00
65832;BME280;52593;42.648;23.332;2023-06-05T01:08:59;95004.19;;;12.58;100.00
65832;BME280;52593;42.648;23.332;2023-06-05T01:11:45;94999.81;;;12.57;100.00
65832;BME280;52593;42.648;23.332;2023-06-05T01:14:18;94991.69;;;12.50;100.00
65832;BME280;52593;42.648;23.332;2023-06-05T01:16:53;94998.88;;;12.49;100.00
65832;BME280;52593;42.648;23.332;2023-06-05T01:19:23;94995.84;;;12.53;100.00
65832;BME280;52593;42.648;23.332;2023-06-05T01:21:53;94990.69;;;12.51;100.00
65832;BME280;52593;42.648;23.332;2023-06-05T01:24:19;94985.00;;;12.46;100.00
65832;BME280;52593;42.648;23.332;2023-06-05T01:29:58;94991.84;;;12.34;100.00
65832;BME280;52593;42.648;23.332;2023-06-05T01:35:10;94996.47;;;12.25;100.00
65832;BME280;52593;42.648;23.332;2023-06-05T01:37:38;94987.94;;;12.21;100.00
65832;BME280;52593;42.648;23.332;2023-06-05T01:40:13;94984.06;;;12.24;100.00
65832;BME280;52593;42.648;23.332;2023-06-05T01:42:40;94982.59;;;12.21;100.00
65832;BME280;52593;42.648;23.332;2023-06-05T01:45:08;94977.69;;;12.10;100.00
65832;BME280;52593;42.648;23.332;2023-06-05T01:47:37;94978.50;;;12.10;100.00
65832;BME280;52593;42.648;23.332;2023-06-05T01:50:05;94978.69;;;12.09;100.00
65832;BME280;52593;42.648;23.332;2023-06-05T01:52:31;94974.63;;;12.13;100.00
65832;BME280;52593;42.648;23.332;2023-06-05T01:54:57;94974.91;;;12.18;100.00
65832;BME280;52593;42.648;23.332;2023-06-05T01:57:27;94972.69;;;12.22;100.00
65832;BME280;52593;42.648;23.332;2023-06-05T01:59:53;94970.66;;;12.24;100.00
65832;BME280;52593;42.648;23.332;2023-06-05T02:02:19;94969.63;;;12.25;100.00
65832;BME280;52593;42.648;23.332;2023-06-05T02:04:44;94972.41;;;12.17;100.00
65832;BME280;52593;42.648;23.332;2023-06-05T02:07:13;94976.41;;;12.21;100.00
65832;BME280;52593;42.648;23.332;2023-06-05T02:09:40;94967.31;;;12.22;100.00
65832;BME280;52593;42.648;23.332;2023-06-05T02:12:05;94970.09;;;12.13;100.00
65832;BME280;52593;42.648;23.332;2023-06-05T02:14:31;94974.25;;;12.16;100.00
65832;BME280;52593;42.648;23.332;2023-06-05T02:16:57;94967.97;;;12.24;100.00
65832;BME280;52593;42.648;23.332;2023-06-05T02:19:23;94965.44;;;12.07;100.00
65832;BME280;52593;42.648;23.332;2023-06-05T02:21:49;94974.59;;;11.98;100.00
65832;BME280;52593;42.648;23.332;2023-06-05T02:24:17;94969.59;;;11.95;100.00
65832;BME280;52593;42.648;23.332;2023-06-05T02:26:44;94980.66;;;11.92;100.00
65832;BME280;52593;42.648;23.332;2023-06-05T02:29:09;94972.31;;;11.87;100.00
65832;BME280;52593;42.648;23.332;2023-06-05T02:31:35;94977.91;;;11.77;100.00
65832;BME280;52593;42.648;23.332;2023-06-05T02:34:02;94980.88;;;11.82;100.00
65832;BME280;52593;42.648;23.332;2023-06-05T02:36:28;94974.06;;;11.80;100.00
65832;BME280;52593;42.648;23.332;2023-06-05T02:39:00;94977.91;;;11.77;100.00
65832;BME280;52593;42.648;23.332;2023-06-05T02:41:27;94979.06;;;11.83;100.00
65832;BME280;52593;42.648;23.332;2023-06-05T02:43:53;94983.75;;;11.81;100.00
65832;BME280;52593;42.648;23.332;2023-06-05T02:46:20;94977.56;;;11.80;100.00
65832;BME280;52593;42.648;23.332;2023-06-05T02:48:45;94972.91;;;11.74;100.00
65832;BME280;52593;42.648;23.332;2023-06-05T02:51:11;94975.13;;;11.70;100.00
65832;BME280;52593;42.648;23.332;2023-06-05T02:53:37;94983.38;;;11.69;100.00
65832;BME280;52593;42.648;23.332;2023-06-05T02:56:03;94983.19;;;11.70;100.00
65832;BME280;52593;42.648;23.332;2023-06-05T02:58:29;94982.81;;;11.73;100.00
65832;BME280;52593;42.648;23.332;2023-06-05T03:00:55;94975.69;;;11.81;100.00
65832;BME280;52593;42.648;23.332;2023-06-05T03:03:31;94976.91;;;11.78;100.00
65832;BME280;52593;42.648;23.332;2023-06-05T03:06:00;94976.25;;;11.76;100.00
65832;BME280;52593;42.648;23.332;2023-06-05T03:08:35;94987.50;;;11.71;100.00
65832;BME280;52593;42.648;23.332;2023-06-05T03:11:01;94990.00;;;11.73;100.00
65832;BME280;52593;42.648;23.332;2023-06-05T03:13:27;94989.00;;;11.74;100.00
65832;BME280;52593;42.648;23.332;2023-06-05T03:15:53;94989.41;;;11.86;100.00
65832;BME280;52593;42.648;23.332;2023-06-05T03:18:25;94987.03;;;11.91;100.00
65832;BME280;52593;42.648;23.332;2023-06-05T03:20:51;94992.06;;;11.94;100.00
65832;BME280;52593;42.648;23.332;2023-06-05T03:23:29;94993.59;;;11.88;100.00
65832;BME280;52593;42.648;23.332;2023-06-05T03:25:55;95006.34;;;11.86;100.00
65832;BME280;52593;42.648;23.332;2023-06-05T03:28:22;94990.91;;;11.88;100.00
65832;BME280;52593;42.648;23.332;2023-06-05T03:30:48;94998.78;;;11.90;100.00
65832;BME280;52593;42.648;23.332;2023-06-05T03:33:14;95003.63;;;11.94;100.00
65832;BME280;52593;42.648;23.332;2023-06-05T03:35:41;95000.41;;;11.99;100.00
65832;BME280;52593;42.648;23.332;2023-06-05T03:38:08;95000.50;;;12.06;100.00
65832;BME280;52593;42.648;23.332;2023-06-05T03:40:34;94992.91;;;12.09;100.00
65832;BME280;52593;42.648;23.332;2023-06-05T03:42:59;95003.22;;;12.21;100.00
65832;BME280;52593;42.648;23.332;2023-06-05T03:45:25;95000.72;;;12.19;100.00
65832;BME280;52593;42.648;23.332;2023-06-05T03:47:52;95006.28;;;12.18;100.00
65832;BME280;52593;42.648;23.332;2023-06-05T03:50:19;95007.38;;;12.23;100.00
65832;BME280;52593;42.648;23.332;2023-06-05T03:52:45;95002.13;;;12.30;100.00
65832;BME280;52593;42.648;23.332;2023-06-05T03:55:18;95005.94;;;12.51;100.00
65832;BME280;52593;42.648;23.332;2023-06-05T03:57:46;95006.78;;;12.51;100.00
65832;BME280;52593;42.648;23.332;2023-06-05T04:00:12;95009.91;;;12.55;100.00
65832;BME280;52593;42.648;23.332;2023-06-05T04:02:40;95018.78;;;12.55;100.00
65832;BME280;52593;42.648;23.332;2023-06-05T04:05:06;95011.22;;;12.59;100.00
65832;BME280;52593;42.648;23.332;2023-06-05T04:07:31;95003.44;;;12.64;100.00
65832;BME280;52593;42.648;23.332;2023-06-05T04:09:57;95001.41;;;12.66;100.00
65832;BME280;52593;42.648;23.332;2023-06-05T04:12:22;95009.75;;;12.71;100.00
65832;BME280;52593;42.648;23.332;2023-06-05T04:14:48;95007.13;;;12.78;100.00
65832;BME280;52593;42.648;23.332;2023-06-05T04:17:13;95006.41;;;12.84;100.00
65832;BME280;52593;42.648;23.332;2023-06-05T04:19:42;95005.84;;;12.89;100.00
65832;BME280;52593;42.648;23.332;2023-06-05T04:22:07;95002.59;;;12.93;100.00
65832;BME280;52593;42.648;23.332;2023-06-05T04:24:33;95014.72;;;13.04;100.00
65832;BME280;52593;42.648;23.332;2023-06-05T04:26:58;95010.59;;;13.38;100.00
65832;BME280;52593;42.648;23.332;2023-06-05T04:29:26;95015.16;;;13.37;100.00
65832;BME280;52593;42.648;23.332;2023-06-05T04:31:51;95011.31;;;13.32;100.00
65832;BME280;52593;42.648;23.332;2023-06-05T04:34:17;95010.31;;;13.33;100.00
65832;BME280;52593;42.648;23.332;2023-06-05T04:36:45;95012.75;;;13.28;100.00
65832;BME280;52593;42.648;23.332;2023-06-05T04:39:15;95005.03;;;13.40;100.00
65832;BME280;52593;42.648;23.332;2023-06-05T04:41:45;94997.69;;;13.48;100.00
65832;BME280;52593;42.648;23.332;2023-06-05T04:44:15;94997.13;;;13.53;100.00
65832;BME280;52593;42.648;23.332;2023-06-05T04:46:42;95003.31;;;13.53;100.00
65832;BME280;52593;42.648;23.332;2023-06-05T04:49:10;94992.44;;;13.62;100.00
65832;BME280;52593;42.648;23.332;2023-06-05T04:51:36;95003.66;;;13.65;100.00
65832;BME280;52593;42.648;23.332;2023-06-05T04:54:02;95003.22;;;13.62;100.00
65832;BME280;52593;42.648;23.332;2023-06-05T04:56:28;95005.13;;;13.68;100.00
65832;BME280;52593;42.648;23.332;2023-06-05T04:58:53;95007.78;;;13.83;100.00
65832;BME280;52593;42.648;23.332;2023-06-05T05:01:18;95010.69;;;13.88;100.00
65832;BME280;52593;42.648;23.332;2023-06-05T05:03:45;95015.06;;;13.89;100.00
65832;BME280;52593;42.648;23.332;2023-06-05T05:06:15;95006.81;;;13.90;100.00
65832;BME280;52593;42.648;23.332;2023-06-05T05:08:42;95004.22;;;14.04;100.00
65832;BME280;52593;42.648;23.332;2023-06-05T05:11:08;95002.81;;;14.08;100.00
65832;BME280;52593;42.648;23.332;2023-06-05T05:13:33;95001.41;;;14.12;100.00
65832;BME280;52593;42.648;23.332;2023-06-05T05:15:59;94997.38;;;14.30;100.00
65832;BME280;52593;42.648;23.332;2023-06-05T05:18:25;94995.97;;;14.34;100.00
65832;BME280;52593;42.648;23.332;2023-06-05T05:20:50;95002.91;;;14.50;100.00
65832;BME280;52593;42.648;23.332;2023-06-05T05:23:15;94997.72;;;14.48;100.00
65832;BME280;52593;42.648;23.332;2023-06-05T05:25:41;95000.09;;;14.58;100.00
65832;BME280;52593;42.648;23.332;2023-06-05T05:28:06;94993.09;;;14.63;100.00
65832;BME280;52593;42.648;23.332;2023-06-05T05:30:32;94998.97;;;14.80;100.00
65832;BME280;52593;42.648;23.332;2023-06-05T05:32:58;94991.41;;;14.97;100.00
65832;BME280;52593;42.648;23.332;2023-06-05T05:35:23;95002.63;;;15.01;100.00
65832;BME280;52593;42.648;23.332;2023-06-05T05:37:48;94998.13;;;15.15;100.00
65832;BME280;52593;42.648;23.332;2023-06-05T05:40:14;94997.94;;;15.23;100.00
65832;BME280;52593;42.648;23.332;2023-06-05T05:42:40;95000.09;;;15.34;99.93
65832;BME280;52593;42.648;23.332;2023-06-05T05:45:06;94995.97;;;15.52;97.75
65832;BME280;52593;42.648;23.332;2023-06-05T05:47:32;95000.75;;;15.50;98.68
65832;BME280;52593;42.648;23.332;2023-06-05T05:49:57;94988.69;;;15.52;97.59
65832;BME280;52593;42.648;23.332;2023-06-05T05:52:23;94992.66;;;15.63;97.44
65832;BME280;52593;42.648;23.332;2023-06-05T05:54:48;94996.63;;;15.67;97.60
65832;BME280;52593;42.648;23.332;2023-06-05T05:57:13;94990.06;;;15.83;96.92
65832;BME280;52593;42.648;23.332;2023-06-05T05:59:40;94982.38;;;15.87;97.23
65832;BME280;52593;42.648;23.332;2023-06-05T06:02:07;94987.38;;;15.97;96.29
65832;BME280;52593;42.648;23.332;2023-06-05T06:04:35;94980.31;;;16.16;94.69
65832;BME280;52593;42.648;23.332;2023-06-05T06:07:00;94983.03;;;16.16;94.40
65832;BME280;52593;42.648;23.332;2023-06-05T06:09:26;94983.84;;;16.30;93.26
65832;BME280;52593;42.648;23.332;2023-06-05T06:11:52;94990.06;;;16.44;92.82
65832;BME280;52593;42.648;23.332;2023-06-05T06:14:23;94988.16;;;16.64;91.96
65832;BME280;52593;42.648;23.332;2023-06-05T06:16:49;94990.63;;;16.86;91.23
65832;BME280;52593;42.648;23.332;2023-06-05T06:19:19;94988.13;;;16.98;90.62
65832;BME280;52593;42.648;23.332;2023-06-05T06:21:48;94987.53;;;16.96;90.25
65832;BME280;52593;42.648;23.332;2023-06-05T06:24:14;94981.84;;;17.10;89.47
65832;BME280;52593;42.648;23.332;2023-06-05T06:26:41;94990.88;;;17.43;88.34
65832;BME280;52593;42.648;23.332;2023-06-05T06:29:07;94984.56;;;17.56;87.01
65832;BME280;52593;42.648;23.332;2023-06-05T06:31:33;94982.66;;;17.56;85.88
65832;BME280;52593;42.648;23.332;2023-06-05T06:33:59;94982.72;;;17.50;85.48
65832;BME280;52593;42.648;23.332;2023-06-05T06:36:25;94983.63;;;17.75;84.67
65832;BME280;52593;42.648;23.332;2023-06-05T06:38:51;94972.59;;;17.70;84.76
65832;BME280;52593;42.648;23.332;2023-06-05T06:41:16;94969.13;;;17.63;84.86
65832;BME280;52593;42.648;23.332;2023-06-05T06:43:42;94981.13;;;17.74;84.41
65832;BME280;52593;42.648;23.332;2023-06-05T06:46:07;94971.19;;;17.68;84.35
65832;BME280;52593;42.648;23.332;2023-06-05T06:48:33;94976.44;;;17.56;83.47
65832;BME280;52593;42.648;23.332;2023-06-05T06:50:59;94966.44;;;17.56;83.99
65832;BME280;52593;42.648;23.332;2023-06-05T06:53:25;94966.84;;;17.60;83.28
65832;BME280;52593;42.648;23.332;2023-06-05T06:55:50;94965.72;;;17.74;82.15
65832;BME280;52593;42.648;23.332;2023-06-05T06:58:16;94956.28;;;17.83;82.40
65832;BME280;52593;42.648;23.332;2023-06-05T07:00:43;94962.66;;;18.03;80.73
65832;BME280;52593;42.648;23.332;2023-06-05T07:03:08;94961.38;;;18.05;81.68
65832;BME280;52593;42.648;23.332;2023-06-05T07:05:33;94955.84;;;17.93;81.84
65832;BME280;52593;42.648;23.332;2023-06-05T07:07:59;94963.25;;;18.05;80.95
65832;BME280;52593;42.648;23.332;2023-06-05T07:10:29;94953.00;;;18.13;81.60
65832;BME280;52593;42.648;23.332;2023-06-05T07:12:54;94953.75;;;18.21;81.32
65832;BME280;52593;42.648;23.332;2023-06-05T07:15:20;94957.38;;;18.33;79.08
65832;BME280;52593;42.648;23.332;2023-06-05T07:17:46;94957.16;;;18.34;79.44
65832;BME280;52593;42.648;23.332;2023-06-05T07:20:11;94949.91;;;18.53;78.61
65832;BME280;52593;42.648;23.332;2023-06-05T07:22:42;94951.16;;;18.76;78.52
65832;BME280;52593;42.648;23.332;2023-06-05T07:25:08;94953.19;;;18.81;77.95
65832;BME280;52593;42.648;23.332;2023-06-05T07:27:34;94952.81;;;18.96;78.20
65832;BME280;52593;42.648;23.332;2023-06-05T07:30:01;94951.41;;;19.12;74.82
65832;BME280;52593;42.648;23.332;2023-06-05T07:32:26;94951.50;;;19.23;75.26
65832;BME280;52593;42.648;23.332;2023-06-05T07:34:52;94964.44;;;19.03;74.99
65832;BME280;52593;42.648;23.332;2023-06-05T07:37:17;94962.50;;;18.92;75.40
65832;BME280;52593;42.648;23.332;2023-06-05T07:39:42;94967.91;;;19.10;75.26
65832;BME280;52593;42.648;23.332;2023-06-05T07:42:08;94968.50;;;19.31;74.44
65832;BME280;52593;42.648;23.332;2023-06-05T07:44:33;94971.97;;;19.38;72.87
65832;BME280;52593;42.648;23.332;2023-06-05T07:46:59;94977.47;;;19.31;73.55
65832;BME280;52593;42.648;23.332;2023-06-05T07:49:24;94980.88;;;19.27;74.32
65832;BME280;52593;42.648;23.332;2023-06-05T07:51:50;94971.59;;;19.34;73.76
65832;BME280;52593;42.648;23.332;2023-06-05T07:54:16;94973.16;;;19.42;72.32
65832;BME280;52593;42.648;23.332;2023-06-05T07:56:42;94975.88;;;19.42;71.63
65832;BME280;52593;42.648;23.332;2023-06-05T07:59:08;94978.59;;;19.42;72.31
65832;BME280;52593;42.648;23.332;2023-06-05T08:01:35;94969.16;;;19.75;73.04
65832;BME280;52593;42.648;23.332;2023-06-05T08:04:05;94968.34;;;20.05;70.06
65832;BME280;52593;42.648;23.332;2023-06-05T08:06:30;94976.41;;;20.35;68.98
65832;BME280;52593;42.648;23.332;2023-06-05T08:08:58;94968.75;;;20.44;67.86
65832;BME280;52593;42.648;23.332;2023-06-05T08:11:24;94977.34;;;20.17;68.13
65832;BME280;52593;42.648;23.332;2023-06-05T08:13:50;94974.97;;;20.09;68.27
65832;BME280;52593;42.648;23.332;2023-06-05T08:16:15;94979.63;;;20.44;67.94
65832;BME280;52593;42.648;23.332;2023-06-05T08:18:41;94974.19;;;20.44;68.69
65832;BME280;52593;42.648;23.332;2023-06-05T08:21:07;94985.38;;;20.66;68.75
65832;BME280;52593;42.648;23.332;2023-06-05T08:23:32;94988.53;;;20.75;68.47
65832;BME280;52593;42.648;23.332;2023-06-05T08:25:58;94982.63;;;20.78;66.43
65832;BME280;52593;42.648;23.332;2023-06-05T08:28:23;94984.16;;;20.85;66.67
65832;BME280;52593;42.648;23.332;2023-06-05T08:30:48;94980.38;;;20.98;65.46
65832;BME280;52593;42.648;23.332;2023-06-05T08:33:14;94992.34;;;20.74;65.98
65832;BME280;52593;42.648;23.332;2023-06-05T08:35:40;94993.38;;;20.49;66.63
65832;BME280;52593;42.648;23.332;2023-06-05T08:38:06;94996.47;;;20.10;68.08
65832;BME280;52593;42.648;23.332;2023-06-05T08:40:33;94991.78;;;20.29;68.06
65832;BME280;52593;42.648;23.332;2023-06-05T08:43:00;94993.69;;;20.41;67.52
65832;BME280;52593;42.648;23.332;2023-06-05T08:45:26;94993.50;;;20.12;68.13
65832;BME280;52593;42.648;23.332;2023-06-05T08:47:54;94998.81;;;20.07;69.35
65832;BME280;52593;42.648;23.332;2023-06-05T08:50:20;94998.00;;;20.06;68.88
65832;BME280;52593;42.648;23.332;2023-06-05T08:52:45;94991.56;;;19.89;69.19
65832;BME280;52593;42.648;23.332;2023-06-05T08:55:14;94997.16;;;19.75;71.31
65832;BME280;52593;42.648;23.332;2023-06-05T08:57:41;94997.47;;;19.67;71.13
65832;BME280;52593;42.648;23.332;2023-06-05T09:00:07;94999.97;;;19.50;71.26
65832;BME280;52593;42.648;23.332;2023-06-05T09:02:36;94997.25;;;19.50;71.11
65832;BME280;52593;42.648;23.332;2023-06-05T09:05:02;94999.00;;;19.45;71.13
65832;BME280;52593;42.648;23.332;2023-06-05T09:07:32;94994.69;;;19.55;71.39
65832;BME280;52593;42.648;23.332;2023-06-05T09:09:58;95000.44;;;19.47;71.12
65832;BME280;52593;42.648;23.332;2023-06-05T09:12:23;94996.06;;;19.46;73.28
65832;BME280;52593;42.648;23.332;2023-06-05T09:14:51;95005.88;;;19.29;72.65
65832;BME280;52593;42.648;23.332;2023-06-05T09:17:16;95001.03;;;19.31;72.16
65832;BME280;52593;42.648;23.332;2023-06-05T09:19:42;95005.75;;;19.23;72.25
65832;BME280;52593;42.648;23.332;2023-06-05T09:22:10;95003.25;;;19.22;71.22
65832;BME280;52593;42.648;23.332;2023-06-05T09:24:36;95004.38;;;19.14;71.88
65832;BME280;52593;42.648;23.332;2023-06-05T09:27:12;94997.28;;;19.13;73.07
65832;BME280;52593;42.648;23.332;2023-06-05T09:29:41;94998.75;;;19.16;72.78
65832;BME280;52593;42.648;23.332;2023-06-05T09:34:40;95001.69;;;19.14;75.11
65832;BME280;52593;42.648;23.332;2023-06-05T09:37:10;95017.22;;;19.00;75.73
65832;BME280;52593;42.648;23.332;2023-06-05T09:39:38;95009.31;;;18.99;75.29
65832;BME280;52593;42.648;23.332;2023-06-05T09:42:04;95010.53;;;19.03;74.50
65832;BME280;52593;42.648;23.332;2023-06-05T09:44:31;95008.97;;;18.95;74.47
65832;BME280;52593;42.648;23.332;2023-06-05T09:47:01;95014.59;;;18.94;74.10
65832;BME280;52593;42.648;23.332;2023-06-05T09:49:47;95012.34;;;18.91;76.67
65832;BME280;52593;42.648;23.332;2023-06-05T09:52:13;95015.31;;;18.82;77.80
65832;BME280;52593;42.648;23.332;2023-06-05T09:54:41;95006.34;;;18.82;77.62
65832;BME280;52593;42.648;23.332;2023-06-05T09:57:08;95000.00;;;18.95;77.99
65832;BME280;52593;42.648;23.332;2023-06-05T09:59:53;94993.31;;;19.16;76.84
65832;BME280;52593;42.648;23.332;2023-06-05T10:02:32;94989.16;;;19.32;72.82
65832;BME280;52593;42.648;23.332;2023-06-05T10:05:02;94995.47;;;19.44;72.61
65832;BME280;52593;42.648;23.332;2023-06-05T10:07:30;94986.59;;;19.67;71.25
65832;BME280;52593;42.648;23.332;2023-06-05T10:09:57;94978.09;;;19.82;72.26
65832;BME280;52593;42.648;23.332;2023-06-05T10:12:24;94981.03;;;19.81;71.80
65832;BME280;52593;42.648;23.332;2023-06-05T10:14:52;94982.72;;;19.93;72.61
65832;BME280;52593;42.648;23.332;2023-06-05T10:17:20;94977.91;;;19.95;72.65
65832;BME280;52593;42.648;23.332;2023-06-05T10:19:46;94988.28;;;19.99;70.92
65832;BME280;52593;42.648;23.332;2023-06-05T10:22:12;94986.91;;;20.08;71.92
65832;BME280;52593;42.648;23.332;2023-06-05T10:24:44;94985.25;;;20.07;72.86
65832;BME280;52593;42.648;23.332;2023-06-05T10:29:56;94991.25;;;19.48;76.63
65832;BME280;52593;42.648;23.332;2023-06-05T10:35:20;94977.63;;;19.36;82.36
65832;BME280;52593;42.648;23.332;2023-06-05T10:40:18;94981.44;;;19.47;80.85
65832;BME280;52593;42.648;23.332;2023-06-05T10:42:44;94975.91;;;19.54;81.48
65832;BME280;52593;42.648;23.332;2023-06-05T10:45:10;94973.78;;;19.74;81.41
65832;BME280;52593;42.648;23.332;2023-06-05T10:52:44;94969.25;;;19.68;83.20
65832;BME280;52593;42.648;23.332;2023-06-05T10:55:10;94968.78;;;19.90;81.39
65832;BME280;52593;42.648;23.332;2023-06-05T11:00:26;94951.13;;;20.11;78.89
65832;BME280;52593;42.648;23.332;2023-06-05T11:02:53;94957.03;;;20.20;79.27
65832;BME280;52593;42.648;23.332;2023-06-05T11:05:19;94951.25;;;20.16;79.58
65832;BME280;52593;42.648;23.332;2023-06-05T11:07:45;94951.25;;;20.16;80.18
65832;BME280;52593;42.648;23.332;2023-06-05T11:10:13;94954.06;;;20.09;78.83
65832;BME280;52593;42.648;23.332;2023-06-05T11:15:11;94947.50;;;21.00;75.99
65832;BME280;52593;42.648;23.332;2023-06-05T11:17:39;94936.97;;;20.92;75.56
65832;BME280;52593;42.648;23.332;2023-06-05T11:25:27;94939.72;;;20.68;75.68
65832;BME280;52593;42.648;23.332;2023-06-05T11:28:00;94930.34;;;20.64;73.27
65832;BME280;52593;42.648;23.332;2023-06-05T11:30:42;94933.19;;;20.57;73.41
65832;BME280;52593;42.648;23.332;2023-06-05T11:35:41;94928.34;;;20.95;73.06
65832;BME280;52593;42.648;23.332;2023-06-05T11:38:20;94921.56;;;21.09;68.79
65832;BME280;52593;42.648;23.332;2023-06-05T11:40:47;94915.75;;;21.87;68.00
65832;BME280;52593;42.648;23.332;2023-06-05T11:43:13;94923.00;;;22.44;65.98
65832;BME280;52593;42.648;23.332;2023-06-05T11:45:43;94914.50;;;22.40;66.25
65832;BME280;52593;42.648;23.332;2023-06-05T11:48:14;94919.06;;;22.06;65.90
65832;BME280;52593;42.648;23.332;2023-06-05T11:51:03;94907.19;;;21.66;65.32
65832;BME280;52593;42.648;23.332;2023-06-05T11:53:32;94910.41;;;21.63;65.80
65832;BME280;52593;42.648;23.332;2023-06-05T11:55:58;94905.44;;;21.89;66.11
65832;BME280;52593;42.648;23.332;2023-06-05T11:58:31;94903.91;;;22.83;63.76
65832;BME280;52593;42.648;23.332;2023-06-05T12:01:23;94897.28;;;23.90;59.94
65832;BME280;52593;42.648;23.332;2023-06-05T12:04:07;94901.28;;;23.55;58.20
65832;BME280;52593;42.648;23.332;2023-06-05T12:06:40;94905.75;;;23.39;58.66
65832;BME280;52593;42.648;23.332;2023-06-05T12:09:10;94896.16;;;23.36;59.12
65832;BME280;52593;42.648;23.332;2023-06-05T12:11:37;94900.34;;;23.44;57.86
65832;BME280;52593;42.648;23.332;2023-06-05T12:14:05;94899.41;;;22.94;58.91
65832;BME280;52593;42.648;23.332;2023-06-05T12:16:39;94894.78;;;22.55;61.18
65832;BME280;52593;42.648;23.332;2023-06-05T12:19:31;94883.88;;;22.04;61.08
65832;BME280;52593;42.648;23.332;2023-06-05T12:22:04;94888.09;;;21.95;61.83
65832;BME280;52593;42.648;23.332;2023-06-05T12:24:30;94891.13;;;21.99;61.70
65832;BME280;52593;42.648;23.332;2023-06-05T12:26:57;94886.13;;;22.07;61.54
65832;BME280;52593;42.648;23.332;2023-06-05T12:29:28;94883.97;;;22.09;61.49
65832;BME280;52593;42.648;23.332;2023-06-05T12:31:59;94883.16;;;22.09;60.91
65832;BME280;52593;42.648;23.332;2023-06-05T12:34:44;94878.19;;;22.23;60.99
65832;BME280;52593;42.648;23.332;2023-06-05T12:37:31;94867.84;;;22.25;59.94
65832;BME280;52593;42.648;23.332;2023-06-05T12:40:10;94869.97;;;22.35;60.91
65832;BME280;52593;42.648;23.332;2023-06-05T12:42:37;94857.50;;;22.61;60.38
65832;BME280;52593;42.648;23.332;2023-06-05T12:45:03;94855.00;;;22.98;58.72
65832;BME280;52593;42.648;23.332;2023-06-05T12:47:29;94851.06;;;22.89;57.73
65832;BME280;52593;42.648;23.332;2023-06-05T12:49:54;94846.19;;;23.13;57.89
65832;BME280;52593;42.648;23.332;2023-06-05T12:52:21;94846.13;;;23.30;58.17
65832;BME280;52593;42.648;23.332;2023-06-05T12:54:52;94843.38;;;23.08;58.44
65832;BME280;52593;42.648;23.332;2023-06-05T12:57:17;94842.69;;;23.40;57.20
65832;BME280;52593;42.648;23.332;2023-06-05T12:59:46;94845.00;;;23.54;56.20
65832;BME280;52593;42.648;23.332;2023-06-05T13:02:12;94842.72;;;23.45;57.00
65832;BME280;52593;42.648;23.332;2023-06-05T13:04:38;94848.75;;;23.20;58.16
65832;BME280;52593;42.648;23.332;2023-06-05T13:07:05;94846.13;;;23.08;58.01
65832;BME280;52593;42.648;23.332;2023-06-05T13:09:31;94848.97;;;22.96;57.46
65832;BME280;52593;42.648;23.332;2023-06-05T13:11:57;94848.88;;;22.69;58.85
65832;BME280;52593;42.648;23.332;2023-06-05T13:14:25;94843.88;;;22.61;59.50
65832;BME280;52593;42.648;23.332;2023-06-05T13:16:50;94840.97;;;22.68;58.80
65832;BME280;52593;42.648;23.332;2023-06-05T13:19:16;94845.91;;;22.71;57.32
65832;BME280;52593;42.648;23.332;2023-06-05T13:21:41;94836.88;;;23.86;52.42